Time;durP1;ratioP1;P1;durP2;ratioP2;P2;SDS_P1;SDS_P2;PMS_P1;PMS_P2;Temp;Humidity;BMP_temperature;BMP_pressure;BME280_temperature;BME280_humidity;BME280_pressure;Samples;Min_cycle;Max_cycle;Signal;HPM_P1;HPM_P2
2021/03/17 00:00:27;;;;;;;2.60;2.40;;;7.00;99.90;;;;;;5095881;28;20594;-64
2021/03/17 00:02:53;;;;;;;2.77;2.57;;;7.10;99.90;;;;;;5114118;28;20279;-64
2021/03/17 00:05:33;;;;;;;3.40;2.57;;;7.10;99.90;;;;;;5114710;28;20433;-64
2021/03/17 00:07:59;;;;;;;3.27;2.97;;;7.00;99.90;;;;;;5115207;28;20593;-63
2021/03/17 00:10:28;;;;;;;3.23;2.67;;;6.90;99.90;;;;;;5114181;28;20431;-64
2021/03/17 00:12:55;;;;;;;4.33;3.10;;;6.90;99.90;;;;;;5114493;28;20533;-64
2021/03/17 00:15:30;;;;;;;2.90;2.70;;;7.00;99.90;;;;;;5113701;28;20403;-64
2021/03/17 00:17:56;;;;;;;2.67;2.47;;;7.00;99.90;;;;;;5114043;28;20411;-64
2021/03/17 00:20:25;;;;;;;4.27;3.80;;;6.80;99.90;;;;;;5113936;28;20510;-64
2021/03/17 00:22:52;;;;;;;3.20;2.90;;;6.90;99.90;;;;;;5114298;28;20402;-64
2021/03/17 00:25:20;;;;;;;3.37;3.03;;;6.80;99.90;;;;;;5113949;28;20410;-64
2021/03/17 00:27:46;;;;;;;3.00;2.80;;;6.80;99.90;;;;;;5113938;28;20410;-65
2021/03/17 00:30:12;;;;;;;3.00;2.80;;;6.80;99.90;;;;;;5112109;28;20511;-64
2021/03/17 00:32:38;;;;;;;3.60;2.90;;;6.90;99.90;;;;;;5113843;28;20165;-63
2021/03/17 00:35:04;;;;;;;2.80;2.60;;;7.00;99.90;;;;;;5113822;28;20394;-64
2021/03/17 00:37:30;;;;;;;3.00;2.80;;;7.10;99.90;;;;;;5073592;28;20535;-63
2021/03/17 00:39:55;;;;;;;2.60;2.40;;;7.10;99.90;;;;;;5072799;28;20550;-64
2021/03/17 00:42:21;;;;;;;4.10;3.30;;;7.00;99.90;;;;;;5073031;28;20554;-64
2021/03/17 00:44:47;;;;;;;2.97;2.73;;;6.90;99.90;;;;;;5072911;28;20170;-64
2021/03/17 00:47:12;;;;;;;3.73;3.43;;;7.00;99.90;;;;;;5110085;28;20231;-63
2021/03/17 00:49:38;;;;;;;3.40;3.10;;;6.80;99.90;;;;;;5113612;28;20201;-64
2021/03/17 00:52:03;;;;;;;3.57;3.27;;;7.00;99.90;;;;;;5114547;28;20544;-64
2021/03/17 00:54:29;;;;;;;3.77;3.47;;;6.90;99.90;;;;;;5113585;28;20255;-63
2021/03/17 00:56:55;;;;;;;2.60;2.40;;;6.90;99.90;;;;;;5113653;28;20165;-63
2021/03/17 00:59:20;;;;;;;3.37;3.07;;;6.80;99.90;;;;;;5113171;28;20188;-64
2021/03/17 01:01:46;;;;;;;3.63;3.33;;;6.90;99.90;;;;;;5113367;28;20170;-64
2021/03/17 01:04:11;;;;;;;2.93;2.73;;;6.90;99.90;;;;;;5113690;28;20197;-63
2021/03/17 01:06:37;;;;;;;3.13;2.83;;;7.00;99.90;;;;;;5113465;28;20168;-63
2021/03/17 01:09:03;;;;;;;4.40;4.00;;;7.10;99.90;;;;;;5113393;28;20195;-64
2021/03/17 01:11:29;;;;;;;4.30;3.67;;;6.90;99.90;;;;;;5113728;28;20683;-64
2021/03/17 01:13:55;;;;;;;4.30;3.90;;;6.70;99.90;;;;;;5096666;28;20435;-63
2021/03/17 01:16:21;;;;;;;4.83;4.43;;;6.80;99.90;;;;;;5090077;28;20199;-63
2021/03/17 01:18:46;;;;;;;4.30;3.90;;;6.70;99.90;;;;;;5092572;28;20601;-63
2021/03/17 01:21:12;;;;;;;3.70;3.40;;;6.70;99.90;;;;;;5092548;28;20238;-64
2021/03/17 01:23:37;;;;;;;4.73;4.33;;;6.70;99.90;;;;;;5092807;28;20630;-64
2021/03/17 01:26:03;;;;;;;4.37;3.97;;;6.50;99.90;;;;;;5094072;28;20226;-64
2021/03/17 01:28:29;;;;;;;4.50;4.10;;;6.70;99.90;;;;;;5092055;28;20177;-64
2021/03/17 01:30:56;;;;;;;5.20;4.70;;;6.80;99.90;;;;;;5095641;28;20772;-63
2021/03/17 01:33:26;;;;;;;5.43;4.93;;;6.90;99.90;;;;;;5091203;28;20634;-64
2021/03/17 01:35:53;;;;;;;4.63;4.23;;;7.00;99.90;;;;;;5085231;28;20412;-64
2021/03/17 01:38:19;;;;;;;4.77;4.37;;;7.00;99.90;;;;;;5095847;28;20423;-64
2021/03/17 01:40:46;;;;;;;4.27;3.90;;;6.80;99.90;;;;;;5087573;28;20782;-66
2021/03/17 01:43:13;;;;;;;4.73;4.33;;;6.80;99.90;;;;;;5092127;28;20236;-64
2021/03/17 01:45:40;;;;;;;5.47;4.90;;;6.70;99.90;;;;;;5091467;28;20468;-64
2021/03/17 01:48:06;;;;;;;4.67;4.27;;;6.80;99.90;;;;;;5095714;28;20541;-64
2021/03/17 01:50:35;;;;;;;5.10;4.60;;;6.60;99.90;;;;;;5096549;28;20449;-64
2021/03/17 01:53:08;;;;;;;5.60;5.10;;;6.60;99.90;;;;;;5096427;28;20505;-63
2021/03/17 01:55:36;;;;;;;4.90;4.33;;;6.40;99.90;;;;;;5088048;28;20620;-64
2021/03/17 01:58:02;;;;;;;4.30;3.90;;;6.30;99.90;;;;;;5095715;28;20471;-63
2021/03/17 02:00:28;;;;;;;4.83;4.43;;;6.40;99.90;;;;;;5094374;28;20499;-63
2021/03/17 04:48:19;;;;;;;5.93;5.43;;;5.70;99.90;;;;;;5057614;28;20457;-61
2021/03/17 04:50:46;;;;;;;7.53;6.83;;;5.60;99.90;;;;;;5069965;28;20432;-61
2021/03/17 04:53:12;;;;;;;7.03;6.33;;;5.60;99.90;;;;;;5073152;28;20889;-62
2021/03/17 04:55:38;;;;;;;6.37;5.33;;;5.70;99.90;;;;;;5073340;28;20952;-61
2021/03/17 04:58:09;;;;;;;6.20;5.70;;;5.80;99.90;;;;;;5073273;28;20404;-60
2021/03/17 05:00:37;;;;;;;6.00;5.50;;;5.80;99.90;;;;;;5072176;28;20486;-61
2021/03/17 05:03:05;;;;;;;7.00;6.40;;;5.70;99.90;;;;;;5061262;28;20926;-60
2021/03/17 05:05:32;;;;;;;8.73;7.67;;;5.70;99.90;;;;;;5079367;28;20422;-61
2021/03/17 05:07:59;;;;;;;6.80;6.20;;;5.70;99.90;;;;;;5061349;28;20789;-62
2021/03/17 05:10:26;;;;;;;7.43;6.83;;;5.80;99.90;;;;;;5079472;28;20835;-63
2021/03/17 05:12:53;;;;;;;6.90;6.30;;;5.80;99.90;;;;;;5079399;28;20400;-62
2021/03/17 05:15:21;;;;;;;7.63;6.93;;;5.90;99.90;;;;;;5079213;28;20419;-62
2021/03/17 05:17:48;;;;;;;8.30;7.50;;;6.00;99.90;;;;;;5077828;28;20503;-62
2021/03/17 05:20:25;;;;;;;9.03;8.13;;;6.00;99.90;;;;;;5077652;28;20567;-62
2021/03/17 05:22:52;;;;;;;8.50;7.70;;;6.00;99.90;;;;;;5054298;28;20850;-62
2021/03/17 05:25:20;;;;;;;9.03;8.20;;;5.80;99.90;;;;;;5059532;28;20484;-62
2021/03/17 05:27:51;;;;;;;9.37;8.57;;;5.90;99.90;;;;;;5054054;28;20424;-62
2021/03/17 05:30:17;;;;;;;8.97;8.07;;;5.80;99.90;;;;;;5050824;28;20515;-63
2021/03/17 05:32:45;;;;;;;8.80;8.00;;;5.80;99.90;;;;;;5055429;28;20470;-65
2021/03/17 05:35:11;;;;;;;10.40;9.37;;;6.10;99.90;;;;;;5076742;28;20408;-62
2021/03/17 05:37:38;;;;;;;9.83;8.93;;;5.90;99.90;;;;;;5067573;28;20458;-62
2021/03/17 05:40:08;;;;;;;11.60;10.47;;;6.00;99.90;;;;;;5059226;28;20464;-62
2021/03/17 05:42:33;;;;;;;10.50;9.40;;;5.90;99.90;;;;;;5067650;28;20504;-62
2021/03/17 05:44:59;;;;;;;10.77;9.67;;;5.80;99.90;;;;;;5078650;28;20448;-62
2021/03/17 05:47:25;;;;;;;13.80;9.43;;;5.80;99.90;;;;;;5061216;28;20169;-61
2021/03/17 05:49:51;;;;;;;11.47;10.27;;;5.90;99.90;;;;;;5077566;28;20832;-62
2021/03/17 05:52:18;;;;;;;12.27;10.97;;;5.70;99.90;;;;;;5075795;28;20760;-62
2021/03/17 05:54:45;;;;;;;11.67;10.50;;;5.50;99.90;;;;;;5078083;28;20416;-60
2021/03/17 05:57:12;;;;;;;12.60;11.30;;;5.60;99.90;;;;;;5079449;28;20432;-62
2021/03/17 05:59:38;;;;;;;12.40;11.10;;;5.60;99.90;;;;;;5079007;28;20423;-62
2021/03/17 06:02:07;;;;;;;14.10;12.67;;;5.70;99.90;;;;;;5065155;28;20905;-62
2021/03/17 06:04:34;;;;;;;13.83;12.33;;;5.70;99.90;;;;;;5058252;28;20415;-58
2021/03/17 06:07:01;;;;;;;13.20;11.90;;;5.80;99.90;;;;;;5071217;28;20506;-62
2021/03/17 06:09:28;;;;;;;16.67;14.50;;;5.50;99.90;;;;;;5077681;28;20443;-62
2021/03/17 06:11:55;;;;;;;16.17;14.47;;;5.50;99.90;;;;;;5070956;28;20528;-62
2021/03/17 06:14:23;;;;;;;15.17;12.70;;;5.50;99.90;;;;;;5058425;28;20853;-63
2021/03/17 06:16:55;;;;;;;15.60;13.40;;;5.70;99.90;;;;;;5075686;28;20814;-62
2021/03/17 06:19:25;;;;;;;14.30;12.80;;;5.80;99.90;;;;;;5075392;28;20507;-62
2021/03/17 06:21:51;;;;;;;14.93;12.87;;;5.80;99.90;;;;;;5067072;28;20457;-61
2021/03/17 06:24:17;;;;;;;15.47;13.97;;;5.90;99.90;;;;;;5055693;28;20432;-62
2021/03/17 06:26:43;;;;;;;17.13;15.13;;;5.60;99.90;;;;;;5074363;28;20897;-62
2021/03/17 06:29:09;;;;;;;16.53;14.30;;;5.40;99.90;;;;;;5075631;28;20189;-60
2021/03/17 06:31:36;;;;;;;17.07;14.63;;;5.30;99.90;;;;;;5075265;28;20523;-60
2021/03/17 06:34:01;;;;;;;16.40;13.43;;;5.40;99.90;;;;;;5064121;28;20487;-62
2021/03/17 06:36:28;;;;;;;15.77;13.60;;;5.50;99.90;;;;;;5059608;28;20415;-62
2021/03/17 06:39:10;;;;;;;17.53;14.63;;;5.60;99.90;;;;;;5074301;28;20179;-61
2021/03/17 06:42:05;;;;;;;20.30;17.03;;;5.60;99.90;;;;;;5073528;28;20880;-61
2021/03/17 06:44:31;;;;;;;17.23;15.23;;;5.80;99.90;;;;;;5024338;28;20454;-62
2021/03/17 06:47:19;;;;;;;16.70;14.53;;;6.00;99.90;;;;;;5035833;28;20426;-63
2021/03/17 06:49:48;;;;;;;16.03;14.33;;;6.00;99.90;;;;;;5042142;28;20168;-62
2021/03/17 06:52:37;;;;;;;16.43;14.77;;;5.90;99.90;;;;;;5034754;28;20836;-61
2021/03/17 06:55:12;;;;;;;20.03;17.87;;;5.70;99.90;;;;;;5050843;28;20487;-61
2021/03/17 06:57:40;;;;;;;17.80;15.70;;;5.70;99.90;;;;;;5042451;28;20424;-63
2021/03/17 07:00:33;;;;;;;16.30;14.60;;;5.60;99.90;;;;;;5065089;28;20451;-60
2021/03/17 07:03:03;;;;;;;16.00;13.97;;;5.50;99.90;;;;;;5036827;28;20422;-62
2021/03/17 07:05:49;;;;;;;17.30;15.53;;;5.40;99.90;;;;;;5054569;28;20381;-62
2021/03/17 07:08:27;;;;;;;16.70;14.80;;;5.50;99.90;;;;;;5053098;28;20470;-61
2021/03/17 07:10:57;;;;;;;16.70;15.00;;;5.50;99.90;;;;;;5058588;28;20428;-60
2021/03/17 07:13:25;;;;;;;14.57;12.80;;;5.60;99.90;;;;;;5041189;28;20470;-58
2021/03/17 07:15:59;;;;;;;14.63;13.13;;;5.90;99.90;;;;;;5053962;28;20412;-62
2021/03/17 07:18:27;;;;;;;14.80;13.20;;;5.80;99.90;;;;;;5063251;28;20420;-62
2021/03/17 07:20:54;;;;;;;16.30;13.80;;;6.00;99.90;;;;;;5054967;28;20995;-63
2021/03/17 07:23:50;;;;;;;15.73;14.13;;;6.10;99.90;;;;;;5055215;28;20436;-65
2021/03/17 07:26:17;;;;;;;14.17;12.63;;;6.00;99.90;;;;;;5057016;28;20425;-63
2021/03/17 07:28:48;;;;;;;13.47;11.83;;;6.10;99.90;;;;;;5057971;28;20410;-63
2021/03/17 07:31:16;;;;;;;14.60;13.20;;;6.10;99.90;;;;;;5057171;28;20417;-63
2021/03/17 07:33:42;;;;;;;15.30;13.67;;;6.20;99.90;;;;;;5056107;28;20917;-63
2021/03/17 07:36:08;;;;;;;13.40;11.90;;;6.20;99.90;;;;;;5054293;28;20413;-63
2021/03/17 07:38:34;;;;;;;19.20;14.50;;;6.30;99.90;;;;;;5036570;28;20421;-62
2021/03/17 07:41:00;;;;;;;14.80;12.10;;;6.40;99.90;;;;;;5054594;28;20457;-63
2021/03/17 07:43:26;;;;;;;13.90;12.30;;;6.60;99.90;;;;;;5040629;28;20167;-62
2021/03/17 07:45:53;;;;;;;12.90;11.60;;;6.60;99.90;;;;;;5056445;28;20159;-60
2021/03/17 07:48:20;;;;;;;14.00;12.50;;;6.70;99.90;;;;;;5058617;28;20405;-61
2021/03/17 07:50:46;;;;;;;14.00;12.50;;;6.60;99.90;;;;;;5057929;28;20432;-61
2021/03/17 07:53:24;;;;;;;13.40;12.00;;;6.60;99.90;;;;;;5058606;28;20820;-63
2021/03/17 07:55:52;;;;;;;13.70;11.67;;;6.70;99.90;;;;;;5059240;28;20425;-63
2021/03/17 07:58:18;;;;;;;12.63;11.33;;;6.80;99.90;;;;;;5059441;28;20414;-63
2021/03/17 08:00:45;;;;;;;14.63;13.13;;;6.90;99.90;;;;;;5060555;28;20545;-63
2021/03/17 08:03:14;;;;;;;12.03;10.80;;;6.60;99.90;;;;;;5059253;28;20420;-64
2021/03/17 08:05:40;;;;;;;12.40;11.10;;;6.70;99.90;;;;;;5060474;28;20401;-63
2021/03/17 08:08:06;;;;;;;8.17;6.80;;;6.80;99.90;;;;;;5057162;28;20402;-64
2021/03/17 08:10:35;;;;;;;7.23;6.57;;;6.80;99.90;;;;;;5056254;28;20428;-63
2021/03/17 08:13:01;;;;;;;5.30;4.63;;;7.00;99.90;;;;;;5041210;28;20405;-63
2021/03/17 08:15:27;;;;;;;4.57;3.97;;;7.00;99.90;;;;;;5038279;28;20434;-63
2021/03/17 08:17:52;;;;;;;5.67;4.23;;;7.00;99.90;;;;;;5037818;28;20160;-63
2021/03/17 08:20:29;;;;;;;4.57;4.17;;;7.20;99.90;;;;;;5040269;28;20987;-63
2021/03/17 08:22:58;;;;;;;6.90;6.10;;;7.20;99.90;;;;;;5037783;28;20169;-65
2021/03/17 08:25:46;;;;;;;6.47;4.90;;;7.30;99.90;;;;;;5035168;28;20444;-64
2021/03/17 08:28:22;;;;;;;6.20;5.60;;;7.70;99.90;;;;;;5035095;28;20394;-64
2021/03/17 08:30:49;;;;;;;10.13;7.70;;;7.60;99.90;;;;;;5034037;28;20421;-63
2021/03/17 08:33:30;;;;;;;9.17;8.03;;;7.60;99.90;;;;;;5033746;28;20410;-64
2021/03/17 08:36:07;;;;;;;9.53;8.40;;;7.60;99.90;;;;;;5034004;28;20383;-64
2021/03/17 08:38:53;;;;;;;11.73;9.37;;;7.50;99.90;;;;;;5033446;28;20501;-64
2021/03/17 08:41:39;;;;;;;9.63;8.67;;;7.80;99.90;;;;;;5039817;28;20496;-64
2021/03/17 08:44:12;;;;;;;10.33;8.27;;;7.90;99.90;;;;;;5079550;22;20490;-64
2021/03/17 08:46:38;;;;;;;11.37;10.27;;;7.90;99.90;;;;;;5055148;28;20960;-64
2021/03/17 08:49:11;;;;;;;10.27;8.60;;;7.90;99.90;;;;;;5072167;28;20429;-63
2021/03/17 08:51:46;;;;;;;12.30;9.60;;;7.90;99.90;;;;;;5072717;28;20459;-65
2021/03/17 08:54:30;;;;;;;12.67;9.53;;;7.70;99.90;;;;;;5073262;28;20420;-64
2021/03/17 08:56:56;;;;;;;10.30;9.17;;;7.50;99.90;;;;;;5073046;28;20404;-64
2021/03/17 08:59:22;;;;;;;14.93;10.20;;;7.50;99.90;;;;;;5072889;28;20441;-64
2021/03/17 09:01:48;;;;;;;8.30;7.50;;;7.20;99.90;;;;;;5072867;28;20475;-64
2021/03/17 09:04:45;;;;;;;9.30;8.30;;;7.00;99.90;;;;;;5072940;28;20593;-65
2021/03/17 09:07:11;;;;;;;8.17;7.37;;;7.30;99.90;;;;;;5072972;28;20242;-64
2021/03/17 09:09:58;;;;;;;7.97;7.17;;;7.80;99.90;;;;;;5072961;28;20401;-64
2021/03/17 09:12:26;;;;;;;7.57;6.73;;;8.00;99.90;;;;;;5073089;28;20386;-64
2021/03/17 09:15:16;;;;;;;11.23;8.13;;;8.10;99.90;;;;;;5072343;28;20525;-62
2021/03/17 09:17:49;;;;;;;9.67;7.43;;;8.20;99.90;;;;;;5059915;28;20413;-64
2021/03/17 09:20:34;;;;;;;8.87;7.10;;;8.40;99.90;;;;;;5072597;28;20807;-65
2021/03/17 09:23:16;;;;;;;5.63;5.00;;;8.30;99.90;;;;;;5072691;28;20457;-63
2021/03/17 09:25:54;;;;;;;3.70;3.40;;;8.30;99.90;;;;;;5072589;28;20406;-64
2021/03/17 09:28:31;;;;;;;3.70;3.40;;;8.50;99.90;;;;;;5072664;28;20399;-66
2021/03/17 09:31:01;;;;;;;6.10;4.57;;;8.70;99.90;;;;;;5072404;28;20409;-67
2021/03/17 09:33:37;;;;;;;7.97;5.87;;;8.60;99.90;;;;;;5072396;28;20809;-66
2021/03/17 09:36:11;;;;;;;6.20;5.60;;;8.70;99.90;;;;;;5072228;28;20407;-66
2021/03/17 09:38:43;;;;;;;5.13;4.63;;;9.10;99.90;;;;;;5072767;28;20396;-66
2021/03/17 09:41:19;;;;;;;6.00;4.90;;;9.40;99.90;;;;;;5072428;28;20446;-65
2021/03/17 09:43:53;;;;;;;6.37;5.20;;;9.30;99.90;;;;;;5053931;28;20556;-65
2021/03/17 09:46:48;;;;;;;6.77;4.57;;;9.40;99.90;;;;;;5072408;28;20410;-65
2021/03/17 09:49:16;;;;;;;6.97;4.30;;;9.10;99.60;;;;;;5068540;28;20433;-65
2021/03/17 09:51:43;;;;;;;4.40;3.17;;;8.50;99.80;;;;;;5065817;28;20414;-65
2021/03/17 09:54:11;;;;;;;5.73;4.17;;;8.40;99.90;;;;;;5056298;28;20870;-64
2021/03/17 09:56:50;;;;;;;8.50;6.43;;;8.60;99.90;;;;;;5056176;28;20405;-64
2021/03/17 09:59:25;;;;;;;8.30;5.50;;;8.50;99.90;;;;;;5055964;28;20443;-64
2021/03/17 10:01:55;;;;;;;11.57;6.23;;;8.60;99.90;;;;;;5056733;28;20445;-64
2021/03/17 10:04:42;;;;;;;5.20;4.70;;;8.90;99.90;;;;;;5056397;28;20449;-64
2021/03/17 10:07:09;;;;;;;6.10;5.20;;;9.10;99.90;;;;;;5056651;28;20384;-64
2021/03/17 10:09:35;;;;;;;6.50;4.50;;;9.00;99.90;;;;;;5056232;28;20414;-64
2021/03/17 10:12:08;;;;;;;5.97;5.07;;;9.10;99.90;;;;;;5057091;28;20421;-64
2021/03/17 10:14:37;;;;;;;8.00;5.03;;;9.40;99.90;;;;;;5071625;28;20435;-64
2021/03/17 10:17:05;;;;;;;8.40;4.47;;;9.60;99.90;;;;;;5076268;28;20897;-64
2021/03/17 10:19:31;;;;;;;5.30;4.80;;;9.80;99.60;;;;;;5075535;28;20405;-64
2021/03/17 10:21:58;;;;;;;5.57;4.40;;;10.00;99.10;;;;;;5075669;28;20454;-64
2021/03/17 10:24:43;;;;;;;7.00;4.33;;;10.00;98.90;;;;;;5075950;28;20508;-64
2021/03/17 10:27:15;;;;;;;4.83;4.20;;;9.70;99.40;;;;;;5076062;28;20427;-64
2021/03/17 10:29:42;;;;;;;6.37;5.10;;;9.50;99.20;;;;;;5075393;28;20399;-64
2021/03/17 10:32:10;;;;;;;4.33;3.93;;;9.40;99.50;;;;;;5075577;28;20485;-64
2021/03/17 10:34:36;;;;;;;5.00;4.50;;;9.40;99.90;;;;;;5075008;28;20564;-64
2021/03/17 10:37:02;;;;;;;6.10;4.37;;;9.30;99.90;;;;;;5075352;28;20418;-64
2021/03/17 10:39:34;;;;;;;5.90;5.13;;;9.40;99.30;;;;;;5075531;28;20407;-64
2021/03/17 10:42:00;;;;;;;6.37;3.93;;;9.60;99.70;;;;;;5075406;28;20453;-64
2021/03/17 10:44:29;;;;;;;5.30;3.90;;;9.90;98.80;;;;;;5074916;28;20454;-64
2021/03/17 10:47:05;;;;;;;7.03;4.13;;;10.10;98.40;;;;;;5075322;28;20982;-64
2021/03/17 10:49:33;;;;;;;5.10;4.27;;;10.20;98.10;;;;;;5075510;28;20397;-64
2021/03/17 10:52:01;;;;;;;4.13;3.73;;;10.40;97.40;;;;;;5075295;28;20455;-64
2021/03/17 10:54:28;;;;;;;4.10;3.70;;;10.50;97.40;;;;;;5056996;28;20443;-64
2021/03/17 10:56:54;;;;;;;5.50;4.20;;;10.50;97.10;;;;;;5075158;28;20413;-66
2021/03/17 10:59:25;;;;;;;4.33;3.70;;;10.00;96.70;;;;;;5075005;28;20412;-64
2021/03/17 11:02:13;;;;;;;4.93;4.10;;;10.40;96.60;;;;;;5074895;28;20201;-64
2021/03/17 11:04:39;;;;;;;4.53;4.13;;;10.80;96.40;;;;;;5074895;28;20482;-64
2021/03/17 11:07:04;;;;;;;5.07;4.47;;;10.50;96.70;;;;;;5074778;28;20802;-64
2021/03/17 11:09:39;;;;;;;3.97;3.57;;;10.00;97.10;;;;;;5075088;28;20171;-64
2021/03/17 11:12:11;;;;;;;5.17;4.27;;;9.60;98.50;;;;;;5077495;28;20603;-64
2021/03/17 11:14:38;;;;;;;7.83;4.73;;;9.00;99.30;;;;;;5074784;28;20758;-64
2021/03/17 11:17:07;;;;;;;4.23;3.83;;;8.80;99.90;;;;;;5074754;28;20414;-64
2021/03/17 11:19:33;;;;;;;4.90;4.33;;;8.70;99.90;;;;;;5074644;28;20457;-63
2021/03/17 11:21:59;;;;;;;4.73;4.00;;;8.40;99.90;;;;;;5074702;28;20946;-63
2021/03/17 11:24:24;;;;;;;4.60;4.20;;;8.30;99.90;;;;;;5074777;28;20202;-63
2021/03/17 11:26:50;;;;;;;4.10;3.70;;;8.40;99.90;;;;;;5074721;28;20174;-65
2021/03/17 11:29:22;;;;;;;3.73;3.43;;;8.50;99.90;;;;;;5074195;28;20201;-63
2021/03/17 11:31:51;;;;;;;6.00;5.07;;;8.50;99.90;;;;;;5074577;28;20420;-63
2021/03/17 11:34:18;;;;;;;8.60;5.60;;;8.60;99.90;;;;;;5074113;28;20428;-63
2021/03/17 11:36:44;;;;;;;7.87;6.53;;;8.60;99.90;;;;;;5074378;28;20409;-63
2021/03/17 11:39:16;;;;;;;10.90;6.63;;;8.60;99.90;;;;;;5074730;28;20783;-63
2021/03/17 11:41:45;;;;;;;7.77;6.43;;;8.50;99.90;;;;;;5074149;28;20448;-63
2021/03/17 11:44:19;;;;;;;6.97;6.27;;;8.10;99.90;;;;;;5073632;28;20455;-63
2021/03/17 11:46:45;;;;;;;9.17;7.23;;;8.10;99.90;;;;;;5074518;28;20376;-63
2021/03/17 11:49:12;;;;;;;8.20;6.80;;;8.10;99.90;;;;;;5073456;28;20721;-63
2021/03/17 11:51:38;;;;;;;6.60;5.90;;;7.70;99.90;;;;;;5053563;28;20418;-64
2021/03/17 11:54:04;;;;;;;7.10;6.40;;;7.70;99.90;;;;;;5054189;28;20432;-65
2021/03/17 11:56:29;;;;;;;12.43;7.23;;;7.60;99.90;;;;;;5054078;28;20546;-65
2021/03/17 11:58:55;;;;;;;6.97;6.07;;;7.50;99.90;;;;;;5053958;28;20547;-65
2021/03/17 12:01:21;;;;;;;8.63;6.30;;;7.20;99.90;;;;;;5068105;28;20662;-65
2021/03/17 12:03:47;;;;;;;6.70;6.03;;;6.80;99.90;;;;;;5073859;28;20190;-64
2021/03/17 12:06:12;;;;;;;8.03;7.17;;;6.60;99.90;;;;;;5073845;28;20166;-64
2021/03/17 12:08:38;;;;;;;8.70;7.40;;;6.20;99.90;;;;;;5073832;28;20400;-64
2021/03/17 12:11:05;;;;;;;9.47;8.10;;;6.30;99.90;;;;;;5073669;28;20180;-63
2021/03/17 12:13:30;;;;;;;11.83;8.60;;;6.30;99.90;;;;;;5073096;28;20193;-64
2021/03/17 12:15:56;;;;;;;10.63;8.00;;;6.40;99.90;;;;;;5073288;28;20405;-64
2021/03/17 12:18:22;;;;;;;10.43;9.10;;;6.20;99.90;;;;;;5072871;28;20174;-65
2021/03/17 12:20:48;;;;;;;11.50;10.30;;;6.00;99.90;;;;;;5073470;28;20186;-65
2021/03/17 12:23:15;;;;;;;14.77;10.40;;;6.10;99.90;;;;;;5055453;28;20443;-65
2021/03/17 12:25:40;;;;;;;11.03;9.33;;;6.00;99.90;;;;;;5071970;28;20761;-65
2021/03/17 12:28:06;;;;;;;12.33;10.03;;;6.00;99.90;;;;;;5065479;28;20412;-63
2021/03/17 12:30:32;;;;;;;13.03;11.47;;;6.10;99.90;;;;;;5053551;28;20705;-63
2021/03/17 12:32:58;;;;;;;16.10;10.83;;;6.30;99.90;;;;;;5054060;28;20483;-64
2021/03/17 12:35:27;;;;;;;13.33;10.60;;;6.30;99.90;;;;;;5063162;28;20646;-64
2021/03/17 12:37:54;;;;;;;13.00;9.20;;;6.30;99.90;;;;;;5072275;28;20220;-63
2021/03/17 12:40:23;;;;;;;11.97;10.20;;;6.20;99.90;;;;;;5073131;28;20856;-63
2021/03/17 12:42:49;;;;;;;13.80;10.70;;;5.90;99.90;;;;;;5073005;28;20415;-64
2021/03/17 12:45:18;;;;;;;11.60;8.70;;;5.60;99.90;;;;;;5073510;28;20384;-63
2021/03/17 12:47:44;;;;;;;14.43;10.40;;;5.60;99.90;;;;;;5072976;28;20494;-63
2021/03/17 12:50:12;;;;;;;13.80;9.73;;;5.50;99.90;;;;;;5072163;28;20423;-63
2021/03/17 12:52:38;;;;;;;14.90;10.40;;;5.60;99.90;;;;;;5072787;28;20227;-64
2021/03/17 12:55:05;;;;;;;12.17;9.90;;;5.60;99.90;;;;;;5073255;28;20502;-63
2021/03/17 12:57:31;;;;;;;12.23;10.60;;;5.50;99.90;;;;;;5073227;28;20178;-63
2021/03/17 12:59:58;;;;;;;10.40;9.10;;;5.70;99.90;;;;;;5073439;28;20940;-63
2021/03/17 13:02:24;;;;;;;11.00;7.97;;;5.70;99.90;;;;;;5060869;28;20194;-64
2021/03/17 13:04:50;;;;;;;12.00;9.47;;;5.80;99.90;;;;;;5059493;28;20444;-64
2021/03/17 13:07:17;;;;;;;9.87;8.70;;;5.90;99.90;;;;;;5072760;28;20792;-64
2021/03/17 13:09:44;;;;;;;8.47;7.60;;;6.20;99.90;;;;;;5075371;28;20490;-63
2021/03/17 13:12:10;;;;;;;9.50;7.53;;;6.10;99.90;;;;;;5073072;28;20897;-64
2021/03/17 13:14:35;;;;;;;10.40;8.83;;;6.10;99.90;;;;;;5071406;28;20447;-63
2021/03/17 13:17:01;;;;;;;8.73;7.83;;;6.30;99.90;;;;;;5072875;28;20432;-63
2021/03/17 13:19:27;;;;;;;9.77;7.60;;;6.40;99.90;;;;;;5072843;28;20245;-63
2021/03/17 13:21:52;;;;;;;7.83;6.90;;;6.50;99.90;;;;;;5072943;28;20190;-63
2021/03/17 13:24:18;;;;;;;7.57;6.60;;;6.60;99.90;;;;;;5074609;28;20197;-63
2021/03/17 13:26:45;;;;;;;9.60;8.23;;;6.50;99.90;;;;;;5076927;28;20260;-63
2021/03/17 13:29:11;;;;;;;8.10;7.30;;;6.50;99.90;;;;;;5076496;28;20393;-64
2021/03/17 13:31:37;;;;;;;7.90;7.10;;;6.60;99.90;;;;;;5076803;28;20404;-63
2021/03/17 13:34:03;;;;;;;8.20;7.40;;;6.70;99.90;;;;;;5076755;28;20493;-64
2021/03/17 13:36:29;;;;;;;14.23;8.40;;;6.90;99.90;;;;;;5076653;28;20184;-64
2021/03/17 13:38:55;;;;;;;9.10;7.90;;;7.00;99.90;;;;;;5075249;28;20431;-63
2021/03/17 13:41:21;;;;;;;9.23;7.67;;;6.90;99.90;;;;;;5076923;28;20967;-64
2021/03/17 13:43:46;;;;;;;9.87;7.70;;;7.00;99.90;;;;;;5076273;28;20452;-64
2021/03/17 13:46:13;;;;;;;8.50;7.50;;;7.20;99.90;;;;;;5076754;28;20245;-64
2021/03/17 13:48:39;;;;;;;11.40;9.70;;;7.40;99.90;;;;;;5075676;28;20417;-64
2021/03/17 13:51:05;;;;;;;8.50;7.70;;;8.00;99.90;;;;;;5076994;28;20167;-63
2021/03/17 13:53:30;;;;;;;10.40;9.27;;;8.40;99.90;;;;;;5074955;28;20202;-64
2021/03/17 13:55:56;;;;;;;11.50;9.70;;;8.60;99.90;;;;;;5076109;28;20171;-64
2021/03/17 13:58:22;;;;;;;11.00;9.53;;;9.70;99.90;;;;;;5076336;28;20175;-64
2021/03/17 14:00:48;;;;;;;10.20;9.20;;;10.60;99.90;;;;;;5075423;28;20226;-64
2021/03/17 14:03:14;;;;;;;11.43;10.33;;;11.30;99.90;;;;;;5076878;28;20190;-64
2021/03/17 14:05:40;;;;;;;9.50;8.47;;;11.50;99.90;;;;;;5058002;28;20162;-64
2021/03/17 14:08:06;;;;;;;10.13;9.03;;;11.40;99.90;;;;;;5075681;28;20405;-64
2021/03/17 14:10:34;;;;;;;9.70;8.70;;;10.80;99.90;;;;;;5076124;28;20233;-64
2021/03/17 14:13:00;;;;;;;12.57;9.33;;;10.30;99.90;;;;;;5076034;28;20800;-64
2021/03/17 14:15:29;;;;;;;9.80;8.80;;;9.60;99.90;;;;;;5075543;28;20437;-64
2021/03/17 14:17:54;;;;;;;11.73;10.03;;;9.10;99.90;;;;;;5075898;28;20172;-64
2021/03/17 14:20:24;;;;;;;11.57;9.90;;;8.90;99.90;;;;;;5076743;28;20448;-64
2021/03/17 14:22:50;;;;;;;8.73;7.80;;;8.50;99.90;;;;;;5075933;28;20255;-64
2021/03/17 14:25:16;;;;;;;9.60;7.73;;;8.10;99.90;;;;;;5075738;28;20408;-64
2021/03/17 14:27:42;;;;;;;7.67;6.97;;;7.80;99.90;;;;;;5075911;28;20435;-63
2021/03/17 14:30:11;;;;;;;6.10;5.50;;;7.90;99.90;;;;;;5075282;28;20208;-64
2021/03/17 14:32:37;;;;;;;8.53;6.90;;;7.90;99.90;;;;;;5075204;28;20409;-64
2021/03/17 14:35:07;;;;;;;7.03;6.23;;;8.20;99.90;;;;;;5073826;28;20470;-64
2021/03/17 14:37:33;;;;;;;5.70;5.13;;;8.50;99.90;;;;;;5075710;28;20225;-64
2021/03/17 14:39:59;;;;;;;7.50;6.10;;;8.50;99.90;;;;;;5074714;28;20815;-64
2021/03/17 14:42:24;;;;;;;6.77;6.07;;;8.50;99.90;;;;;;5075624;28;20230;-64
2021/03/17 14:44:51;;;;;;;5.27;4.80;;;8.80;99.90;;;;;;5122021;22;20742;-62
2021/03/17 14:47:17;;;;;;;5.97;5.47;;;9.60;99.90;;;;;;5088986;28;20171;-62
2021/03/17 14:49:43;;;;;;;5.90;5.27;;;10.20;99.90;;;;;;5103504;28;20430;-62
2021/03/17 14:52:08;;;;;;;5.40;4.90;;;12.00;99.90;;;;;;5119213;28;20476;-62
2021/03/17 14:54:34;;;;;;;5.40;4.90;;;12.90;99.90;;;;;;5098216;28;20237;-62
2021/03/17 14:57:00;;;;;;;5.10;4.67;;;13.90;99.90;;;;;;5106387;28;20185;-63
2021/03/17 14:59:26;;;;;;;5.60;5.10;;;13.20;99.90;;;;;;5086022;28;20406;-62
2021/03/17 15:01:52;;;;;;;4.90;4.50;;;14.40;99.70;;;;;;5096673;28;20195;-62
2021/03/17 15:04:17;;;;;;;5.43;4.93;;;13.50;98.60;;;;;;5113964;28;20283;-62
2021/03/17 15:06:43;;;;;;;3.23;3.03;;;12.00;99.90;;;;;;5115588;28;20552;-62
2021/03/17 15:09:08;;;;;;;3.23;2.97;;;10.60;99.90;;;;;;5116046;28;20164;-61
2021/03/17 15:11:34;;;;;;;3.13;2.20;;;9.00;99.90;;;;;;5116079;28;20717;-63
2021/03/17 15:14:00;;;;;;;3.90;1.90;;;7.90;99.90;;;;;;5115783;28;20191;-64
2021/03/17 15:16:26;;;;;;;2.70;2.37;;;7.10;99.90;;;;;;5099711;28;20600;-63
2021/03/17 15:18:51;;;;;;;1.60;1.50;;;6.50;99.90;;;;;;5086414;28;20170;-62
2021/03/17 15:21:17;;;;;;;2.30;2.10;;;6.00;99.90;;;;;;5095076;28;20196;-63
2021/03/17 15:23:43;;;;;;;4.20;2.40;;;5.80;99.90;;;;;;5094943;28;20209;-62
2021/03/17 15:26:10;;;;;;;1.93;1.73;;;5.90;99.90;;;;;;5094968;28;20795;-63
2021/03/17 15:28:36;;;;;;;2.27;1.80;;;5.50;99.90;;;;;;5095296;28;20168;-63
2021/03/17 15:31:02;;;;;;;2.87;2.20;;;5.40;99.90;;;;;;5095628;28;20402;-63
2021/03/17 15:33:28;;;;;;;3.63;2.17;;;5.50;99.90;;;;;;5094717;28;20423;-63
2021/03/17 15:35:53;;;;;;;3.00;2.60;;;5.40;99.90;;;;;;5095336;28;20177;-63
2021/03/17 15:38:19;;;;;;;3.90;2.40;;;5.50;99.90;;;;;;5094638;28;20185;-63
2021/03/17 15:40:45;;;;;;;2.90;2.23;;;5.90;99.90;;;;;;5094577;28;20185;-62
2021/03/17 15:43:11;;;;;;;1.90;1.80;;;6.10;99.90;;;;;;5094146;28;20245;-62